createdAt,value
2022-08-22T00:02:47.158Z,101069.59
2022-08-22T00:03:44.280Z,101055.47
2022-08-22T00:08:55.549Z,101052.63
2022-08-22T00:14:07.448Z,101060.53
2022-08-22T00:19:24.419Z,101062.44
2022-08-22T00:25:24.754Z,101059.50
2022-08-22T00:30:30.214Z,101055.00
2022-08-22T00:35:34.774Z,101056.19
2022-08-22T00:40:53.308Z,101055.91
2022-08-22T00:46:22.212Z,101047.94
2022-08-22T00:51:35.613Z,101056.09
2022-08-22T00:57:03.256Z,101047.88
2022-08-22T01:02:11.159Z,101052.19
2022-08-22T01:07:38.226Z,101045.16
2022-08-22T01:12:52.384Z,101038.66
2022-08-22T01:18:28.616Z,101040.16
2022-08-22T01:23:48.674Z,101042.69
2022-08-22T01:28:50.108Z,101035.63
2022-08-22T01:34:13.708Z,101036.31
2022-08-22T01:39:56.633Z,101027.81
2022-08-22T01:45:01.025Z,101029.91
2022-08-22T01:50:12.921Z,101026.25
2022-08-22T01:55:24.416Z,101030.59
2022-08-22T02:00:34.609Z,101035.38
2022-08-22T02:05:51.372Z,101030.94
2022-08-22T02:10:58.844Z,101035.28
2022-08-22T02:16:08.833Z,101026.44
2022-08-22T02:21:23.822Z,101028.69
2022-08-22T02:26:25.485Z,101035.28
2022-08-22T02:32:02.484Z,101030.50
2022-08-22T02:37:14.991Z,101032.06
2022-08-22T02:42:40.017Z,101027.44
2022-08-22T02:47:56.796Z,101028.31
2022-08-22T02:53:02.381Z,101022.59
2022-08-22T02:58:29.074Z,101022.94
2022-08-22T03:03:39.885Z,101022.78
2022-08-22T03:09:05.765Z,101012.16
2022-08-22T03:14:28.893Z,101007.28
2022-08-22T03:19:44.053Z,101008.50
2022-08-22T03:25:04.906Z,101000.94
2022-08-22T03:30:10.616Z,101002.44
2022-08-22T03:35:25.439Z,101001.75
2022-08-22T03:40:57.534Z,100987.75
2022-08-22T03:46:34.584Z,100990.97
2022-08-22T03:51:59.068Z,100994.44
2022-08-22T03:57:25.345Z,100989.56
2022-08-22T04:02:51.488Z,100989.56
2022-08-22T04:08:29.632Z,100977.75
2022-08-22T04:13:53.906Z,100989.72
2022-08-22T04:19:26.005Z,100978.22
2022-08-22T04:24:52.163Z,100990.78
2022-08-22T04:30:34.429Z,100985.81
2022-08-22T04:35:42.900Z,100990.88
2022-08-22T04:40:52.558Z,100991.91
2022-08-22T04:46:23.301Z,100988.75
2022-08-22T04:51:57.437Z,100989.63
2022-08-22T04:57:17.755Z,100999.34
2022-08-22T05:02:27.599Z,101009.97
2022-08-22T05:07:35.870Z,101016.16
2022-08-22T05:12:40.701Z,101014.53
2022-08-22T05:17:44.801Z,101009.97
2022-08-22T05:22:51.187Z,101008.16
2022-08-22T05:28:02.318Z,101001.91
2022-08-22T05:33:29.724Z,101013.13
2022-08-22T05:38:34.557Z,101024.59
2022-08-22T05:43:43.202Z,101014.97
2022-08-22T05:48:53.328Z,101015.78
2022-08-22T05:54:11.332Z,101013.88
2022-08-22T05:59:32.899Z,101021.78
2022-08-22T06:04:40.472Z,101028.97
2022-08-22T06:09:47.836Z,101038.03
2022-08-22T06:15:13.893Z,101030.75
2022-08-22T06:20:20.825Z,101046.63
2022-08-22T06:25:27.622Z,101033.72
2022-08-22T06:30:30.055Z,101037.38
2022-08-22T06:35:59.397Z,101040.59
2022-08-22T06:41:06.062Z,101033.19
2022-08-22T06:46:08.886Z,101040.72
2022-08-22T06:51:12.550Z,101041.81
2022-08-22T06:56:20.999Z,101030.84
2022-08-22T07:01:31.128Z,101033.47
2022-08-22T07:06:47.240Z,101034.66
2022-08-22T07:11:48.944Z,101035.41
2022-08-22T07:17:01.064Z,101038.41
2022-08-22T07:22:15.601Z,101028.44
2022-08-22T07:27:19.860Z,101034.28
2022-08-22T07:32:30.081Z,101039.09
2022-08-22T07:38:08.018Z,101039.06
2022-08-22T07:43:25.181Z,101040.97
2022-08-22T07:48:33.476Z,101054.69
2022-08-22T07:53:45.873Z,101043.34
2022-08-22T07:58:52.580Z,101043.44
2022-08-22T08:03:58.921Z,101044.41
2022-08-22T08:09:01.633Z,101040.13
2022-08-22T08:14:07.056Z,101036.22
2022-08-22T08:19:10.765Z,101039.34
2022-08-22T08:24:19.505Z,101040.50
2022-08-22T08:29:21.713Z,101035.69
2022-08-22T08:34:26.642Z,101028.34
2022-08-22T08:39:43.360Z,101022.72
2022-08-22T08:45:11.090Z,101020.28
2022-08-22T08:50:40.433Z,101012.53
2022-08-22T08:56:14.649Z,101012.72
2022-08-22T09:01:59.203Z,101007.44
2022-08-22T09:07:42.181Z,101002.09
2022-08-22T09:13:21.321Z,100994.50
2022-08-22T09:18:41.524Z,100997.13
2022-08-22T09:24:05.210Z,100998.88
2022-08-22T09:29:34.705Z,100990.28
2022-08-22T09:35:27.190Z,100987.66
2022-08-22T09:40:39.926Z,100994.63
2022-08-22T09:46:01.921Z,100995.16
2022-08-22T09:51:31.647Z,100986.53
2022-08-22T09:56:58.243Z,100983.56
2022-08-22T10:02:16.749Z,100992.47
2022-08-22T10:07:29.100Z,100990.34
2022-08-22T10:12:37.629Z,100981.94
2022-08-22T10:17:56.780Z,100977.88
2022-08-22T10:23:01.221Z,100981.31
2022-08-22T10:28:14.918Z,100969.09
2022-08-22T10:33:29.189Z,100960.72
2022-08-22T10:38:46.441Z,100967.22
2022-08-22T10:44:36.774Z,100961.63
2022-08-22T10:49:52.017Z,100957.31
2022-08-22T10:55:09.960Z,100953.75
2022-08-22T11:00:37.227Z,100948.38
2022-08-22T11:05:51.030Z,100946.56
2022-08-22T11:11:22.657Z,100945.34
2022-08-22T11:16:31.004Z,100928.28
2022-08-22T11:21:58.821Z,100926.19
2022-08-22T11:27:14.946Z,100930.94
2022-08-22T11:32:40.561Z,100921.69
2022-08-22T11:37:58.505Z,100932.28
2022-08-22T11:43:18.618Z,100934.06
2022-08-22T11:48:23.821Z,100925.00
2022-08-22T11:53:42.033Z,100924.50
2022-08-22T11:58:58.873Z,100912.34
2022-08-22T12:04:06.397Z,100915.09
2022-08-22T12:09:25.497Z,100909.94
2022-08-22T12:14:36.751Z,100903.22
2022-08-22T12:20:15.107Z,100894.28
2022-08-22T12:25:38.465Z,100890.25
2022-08-22T12:31:02.900Z,100891.13
2022-08-22T12:36:20.393Z,100891.28
2022-08-22T12:41:37.527Z,100886.28
2022-08-22T12:47:17.325Z,100884.22
2022-08-22T12:52:36.539Z,100875.34
2022-08-22T12:58:02.575Z,100861.81
2022-08-22T13:03:29.760Z,100859.06
2022-08-22T13:08:38.508Z,100864.84
2022-08-22T13:13:56.060Z,100854.59
2022-08-22T13:19:07.537Z,100863.38
2022-08-22T13:24:16.840Z,100857.16
2022-08-22T13:29:39.659Z,100865.25
2022-08-22T13:34:56.445Z,100851.16
2022-08-22T13:40:02.279Z,100850.69
2022-08-22T13:45:12.534Z,100839.22
2022-08-22T13:50:19.783Z,100834.78
2022-08-22T13:55:27.613Z,100830.94
2022-08-22T14:01:05.176Z,100831.13
2022-08-22T14:06:37.016Z,100835.50
2022-08-22T14:11:45.956Z,100830.38
2022-08-22T14:16:51.069Z,100817.00
2022-08-22T14:21:59.590Z,100815.56
2022-08-22T14:27:09.312Z,100809.63
2022-08-22T14:32:23.298Z,100809.00
2022-08-22T14:37:33.567Z,100810.41
2022-08-22T14:42:49.405Z,100806.06
2022-08-22T14:48:30.419Z,100792.19
2022-08-22T14:53:35.825Z,100793.75
2022-08-22T14:58:53.720Z,100791.97
2022-08-22T15:04:18.913Z,100779.59
2022-08-22T15:09:48.542Z,100782.88
2022-08-22T15:14:53.339Z,100776.31
2022-08-22T15:20:27.865Z,100772.94
2022-08-22T15:25:41.124Z,100768.66
2022-08-22T15:30:49.372Z,100761.25
2022-08-22T15:36:15.853Z,100754.72
2022-08-22T15:41:36.718Z,100766.72
2022-08-22T15:46:57.963Z,100762.00
2022-08-22T15:51:59.421Z,100763.09
2022-08-22T15:57:16.174Z,100760.94
2022-08-22T16:02:28.817Z,100767.56
2022-08-22T16:07:41.062Z,100768.50
2022-08-22T16:13:06.884Z,100763.56
2022-08-22T16:18:33.836Z,100766.16
2022-08-22T16:23:50.896Z,100769.81
2022-08-22T16:29:13.668Z,100755.88
2022-08-22T16:34:24.484Z,100757.56
2022-08-22T16:39:58.635Z,100752.13
2022-08-22T16:45:05.955Z,100745.75
2022-08-22T16:50:16.496Z,100744.91
2022-08-22T16:55:30.250Z,100737.56
2022-08-22T17:00:43.419Z,100735.69
2022-08-22T17:06:12.585Z,100730.50
2022-08-22T17:11:32.302Z,100730.56
2022-08-22T17:17:15.588Z,100732.63
2022-08-22T17:22:32.260Z,100731.94
2022-08-22T17:27:39.736Z,100727.19
2022-08-22T17:32:44.332Z,100730.06
2022-08-22T17:37:59.899Z,100737.00
2022-08-22T17:43:26.784Z,100742.66
2022-08-22T17:48:31.627Z,100744.38
2022-08-22T17:53:50.302Z,100742.66
2022-08-22T17:59:02.886Z,100737.59
2022-08-22T18:04:10.856Z,100743.66
2022-08-22T18:09:27.952Z,100746.81
2022-08-22T18:14:38.183Z,100742.38
2022-08-22T18:19:51.934Z,100749.00
2022-08-22T18:25:11.078Z,100754.03
2022-08-22T18:30:30.826Z,100755.44
2022-08-22T18:35:53.955Z,100761.19
2022-08-22T18:41:10.381Z,100763.31
2022-08-22T18:46:37.711Z,100770.88
2022-08-22T18:51:41.467Z,100773.91
2022-08-22T18:57:07.268Z,100767.69
2022-08-22T19:02:20.796Z,100777.66
2022-08-22T19:07:35.378Z,100782.63
2022-08-22T19:12:49.586Z,100782.75
2022-08-22T19:18:15.103Z,100792.06
2022-08-22T19:23:31.708Z,100800.25
2022-08-22T19:28:37.341Z,100802.78
2022-08-22T19:33:41.524Z,100804.06
2022-08-22T19:39:09.035Z,100810.31
2022-08-22T19:44:36.307Z,100811.59
2022-08-22T19:49:43.654Z,100815.56
2022-08-22T19:55:14.401Z,100819.28
2022-08-22T20:00:20.865Z,100821.84
2022-08-22T20:05:43.587Z,100823.31
2022-08-22T20:11:28.129Z,100822.31
2022-08-22T20:16:58.100Z,100818.88
2022-08-22T20:22:03.801Z,100813.22
2022-08-22T20:27:15.153Z,100815.94
2022-08-22T20:32:21.152Z,100815.59
2022-08-22T20:37:40.402Z,100815.53
2022-08-22T20:42:53.717Z,100813.06
2022-08-22T20:47:55.715Z,100809.94
2022-08-22T20:53:17.471Z,100813.16
2022-08-22T20:58:22.660Z,100807.75
2022-08-22T21:03:36.218Z,100803.81
2022-08-22T21:08:37.985Z,100804.19
2022-08-22T21:13:39.492Z,100811.97
2022-08-22T21:18:50.571Z,100813.22
2022-08-22T21:24:01.025Z,100809.09
2022-08-22T21:29:21.086Z,100808.88
2022-08-22T21:34:34.332Z,100801.16
2022-08-22T21:39:43.663Z,100809.88
2022-08-22T21:44:57.225Z,100803.44
2022-08-22T21:50:14.335Z,100809.34
2022-08-22T21:55:23.837Z,100806.88
2022-08-22T22:00:50.536Z,100810.56
2022-08-22T22:05:56.226Z,100813.03
2022-08-22T22:11:01.148Z,100815.22
2022-08-22T22:16:03.767Z,100810.53
2022-08-22T22:21:05.361Z,100814.50
2022-08-22T22:26:06.922Z,100806.63
2022-08-22T22:31:09.610Z,100810.19
2022-08-22T22:36:17.773Z,100809.84
2022-08-22T22:41:23.304Z,100806.25
2022-08-22T22:46:27.007Z,100805.63
2022-08-22T22:51:28.514Z,100802.31
2022-08-22T22:56:30.055Z,100801.06
2022-08-22T23:01:32.201Z,100812.63
2022-08-22T23:06:34.556Z,100800.09
2022-08-22T23:11:36.195Z,100797.91
2022-08-22T23:16:40.203Z,100806.16
2022-08-22T23:21:42.980Z,100803.88
2022-08-22T23:26:44.687Z,100794.84
2022-08-22T23:31:51.106Z,100806.56
2022-08-22T23:36:54.745Z,100804.66
2022-08-22T23:41:57.153Z,100806.59
2022-08-22T23:47:00.217Z,100804.66
2022-08-22T23:52:02.599Z,100801.03
2022-08-22T23:57:11.904Z,100806.19
